Terminal Aerodrome Forecast
Issued by NWS Sterling, VA

Current Version | Previous Version | Graphics & Text | Print | Product List | Glossary Off
Versions: 1 2 3 4 5 6 7 8 9 10 11 12 13 14 15 16 17 18 19 20 21 22

000
FTUS41 KLWX 261130
TAFDCA
TAF
KDCA 261130Z 2612/2712 17005KT 6SM -DZ BR SCT015 BKN025 OVC040
     FM261500 17006KT P6SM BKN025 OVC040
     FM261800 17010G18KT P6SM SCT025 BKN030 OVC040
     FM270400 19009KT 5SM -SHRA BKN015 OVC050
     FM271000 30005KT P6SM VCSH BKN050 OVC130=

USA.gov is the U.S. government's official web portal to all federal, state and local government web resources and services.